FIMP/MRU METAR and TAF weather

Enter ICAO airport designator
Station Type Date Time Source
FIMP METAR 2018/04/27 01:00 UTC NOAA

FIMP 270100Z 18014KT 9999 BKN016 25/20 Q1014


Station Type Date Time Source
FIMP Decoded METAR 2018/04/27 01:00 UTC NOAA

Plaisance Mauritius , Mauritius (FIMP) 20-26S 057-40E 57M
Apr 26, 2018 - 09:00 PM EDT / 2018.04.27 0100 UTC
Wind: from the S (180 degrees) at 16 MPH (14 KT):0
Visibility: greater than 7 mile(s):0
Sky conditions: mostly cloudy
Temperature: 77 F (25 C)
Dew Point: 68 F (20 C)
Relative Humidity: 73%
Pressure (altimeter): 29.94 in. Hg (1014 hPa)
ob: FIMP 270100Z 18014KT 9999 BKN016 25/20 Q1014
cycle: 1

Station Type Date Time Source
FIMP TAF 2018/04/27 00:01 UTC NOAA

TAF FIMP 262340Z 2700/2806 17015G25KT 9999 SCT016 PROB 30
TEMPO 2715/2802 7000 -SHRA BKN015 BKN050
BECMG 2704/2706 15015G25KT


Example: see airport list